Terminal Aerodrome Forecast
Issued by NWS Green Bay, WI

Home | Current Version | Previous Version | Graphics & Text | Print | Product List | Glossary On
Versions: 1 2 3 4 5 6 7 8 9 10 11 12 13 14 15 16 17 18 19 20 21 22 23 24 25 26 27 28 29 30 31 32 33
000
FTUS43 KGRB 151700
TAFGRB
TAF
KGRB 151737Z 1518/1618 28012KT P6SM SCT045
      TEMPO 1518/1521 -SN BKN040
     FM160100 26004KT P6SM SCT200
     FM160600 VRB03KT P6SM BKN120
     FM161400 12012G20KT P6SM -SN SCT030 OVC050=

USA.gov is the U.S. government's official web portal to all federal, state and local government web resources and services.